sensor_id;sensor_type;location;lat;lon;timestamp;pressure;altitude;pressure_sealevel;temperature;humidity
56052;BME280;41919;42.648;23.384;2022-07-29T00:02:25;94748.22;;;17.62;92.84
56052;BME280;41919;42.648;23.384;2022-07-29T00:04:51;94714.31;;;17.20;94.14
56052;BME280;41919;42.648;23.384;2022-07-29T00:07:17;94753.19;;;17.42;94.63
56052;BME280;41919;42.648;23.384;2022-07-29T00:09:42;94756.38;;;17.44;94.84
56052;BME280;41919;42.648;23.384;2022-07-29T00:12:08;94759.44;;;17.53;94.46
56052;BME280;41919;42.648;23.384;2022-07-29T00:14:34;94759.19;;;17.54;94.28
56052;BME280;41919;42.648;23.384;2022-07-29T00:16:59;94714.00;;;17.34;92.91
56052;BME280;41919;42.648;23.384;2022-07-29T00:19:25;94731.97;;;17.54;92.30
56052;BME280;41919;42.648;23.384;2022-07-29T00:21:50;94774.78;;;17.90;91.34
56052;BME280;41919;42.648;23.384;2022-07-29T00:24:16;94775.66;;;17.95;91.05
56052;BME280;41919;42.648;23.384;2022-07-29T00:26:41;94711.03;;;17.69;88.33
56052;BME280;41919;42.648;23.384;2022-07-29T00:29:06;94760.47;;;18.08;88.07
56052;BME280;41919;42.648;23.384;2022-07-29T00:31:32;94701.97;;;17.82;87.71
56052;BME280;41919;42.648;23.384;2022-07-29T00:33:57;94751.31;;;18.15;87.67
56052;BME280;41919;42.648;23.384;2022-07-29T00:36:23;94758.25;;;18.21;87.99
56052;BME280;41919;42.648;23.384;2022-07-29T00:38:49;94762.31;;;18.29;87.98
56052;BME280;41919;42.648;23.384;2022-07-29T00:41:15;94755.44;;;18.28;88.22
56052;BME280;41919;42.648;23.384;2022-07-29T00:43:41;94738.03;;;18.10;88.59
56052;BME280;41919;42.648;23.384;2022-07-29T00:46:07;94704.25;;;17.95;88.34
56052;BME280;41919;42.648;23.384;2022-07-29T00:48:32;94756.38;;;18.39;88.11
56052;BME280;41919;42.648;23.384;2022-07-29T00:50:59;94714.91;;;18.22;87.20
56052;BME280;41919;42.648;23.384;2022-07-29T00:53:26;94718.47;;;18.33;86.42
56052;BME280;41919;42.648;23.384;2022-07-29T00:55:53;94700.38;;;18.25;86.23
56052;BME280;41919;42.648;23.384;2022-07-29T00:58:20;94719.19;;;18.51;85.91
56052;BME280;41919;42.648;23.384;2022-07-29T01:00:45;94754.97;;;18.80;85.76
56052;BME280;41919;42.648;23.384;2022-07-29T01:03:11;94755.47;;;19.05;84.32
56052;BME280;41919;42.648;23.384;2022-07-29T01:05:36;94752.88;;;19.15;83.49
56052;BME280;41919;42.648;23.384;2022-07-29T01:08:02;94707.44;;;18.96;82.19
56052;BME280;41919;42.648;23.384;2022-07-29T01:10:29;94741.25;;;19.16;82.14
56052;BME280;41919;42.648;23.384;2022-07-29T01:12:57;94686.50;;;18.67;82.53
56052;BME280;41919;42.648;23.384;2022-07-29T01:15:24;94738.03;;;18.82;83.14
56052;BME280;41919;42.648;23.384;2022-07-29T01:34:07;94755.34;;;19.27;81.73
56052;BME280;41919;42.648;23.384;2022-07-29T01:39:38;94741.38;;;19.31;80.78
56052;BME280;41919;42.648;23.384;2022-07-29T01:42:27;94703.22;;;19.00;81.40
56052;BME280;41919;42.648;23.384;2022-07-29T01:48:10;94726.81;;;18.74;83.35
56052;BME280;41919;42.648;23.384;2022-07-29T01:50:47;94725.78;;;18.26;86.39
56052;BME280;41919;42.648;23.384;2022-07-29T01:53:17;94729.47;;;18.25;87.15
56052;BME280;41919;42.648;23.384;2022-07-29T01:55:48;94733.22;;;18.29;87.73
56052;BME280;41919;42.648;23.384;2022-07-29T01:58:17;94743.38;;;18.37;87.01
56052;BME280;41919;42.648;23.384;2022-07-29T02:00:44;94691.03;;;17.95;86.89
56052;BME280;41919;42.648;23.384;2022-07-29T02:03:12;94711.59;;;18.10;87.27
56052;BME280;41919;42.648;23.384;2022-07-29T02:05:41;94668.63;;;17.81;87.72
56052;BME280;41919;42.648;23.384;2022-07-29T02:08:08;94716.88;;;18.10;88.56
56052;BME280;41919;42.648;23.384;2022-07-29T02:10:36;94726.03;;;18.02;89.18
56052;BME280;41919;42.648;23.384;2022-07-29T02:13:03;94708.13;;;17.88;89.39
56052;BME280;41919;42.648;23.384;2022-07-29T02:15:32;94657.84;;;17.43;90.27
56052;BME280;41919;42.648;23.384;2022-07-29T02:18:12;94723.69;;;17.84;90.84
56052;BME280;41919;42.648;23.384;2022-07-29T02:20:41;94720.97;;;17.62;92.71
56052;BME280;41919;42.648;23.384;2022-07-29T02:23:11;94723.81;;;17.55;93.18
56052;BME280;41919;42.648;23.384;2022-07-29T02:25:38;94685.81;;;17.22;94.00
56052;BME280;41919;42.648;23.384;2022-07-29T02:28:07;94661.28;;;17.05;94.24
56052;BME280;41919;42.648;23.384;2022-07-29T02:30:35;94703.88;;;17.31;95.01
56052;BME280;41919;42.648;23.384;2022-07-29T02:33:02;94721.50;;;17.42;94.73
56052;BME280;41919;42.648;23.384;2022-07-29T02:35:29;94705.00;;;17.35;94.41
56052;BME280;41919;42.648;23.384;2022-07-29T02:37:55;94653.09;;;17.07;94.43
56052;BME280;41919;42.648;23.384;2022-07-29T02:40:41;94721.56;;;17.47;94.29
56052;BME280;41919;42.648;23.384;2022-07-29T02:43:08;94712.50;;;17.43;94.46
56052;BME280;41919;42.648;23.384;2022-07-29T02:45:34;94711.06;;;17.35;95.37
56052;BME280;41919;42.648;23.384;2022-07-29T02:48:05;94699.91;;;17.28;96.03
56052;BME280;41919;42.648;23.384;2022-07-29T02:50:38;94700.38;;;17.25;96.46
56052;BME280;41919;42.648;23.384;2022-07-29T02:53:15;94695.19;;;17.30;96.30
56052;BME280;41919;42.648;23.384;2022-07-29T02:56:00;94686.28;;;17.19;97.01
56052;BME280;41919;42.648;23.384;2022-07-29T02:58:27;94699.50;;;17.19;97.70
56052;BME280;41919;42.648;23.384;2022-07-29T03:00:56;94701.81;;;17.16;98.13
56052;BME280;41919;42.648;23.384;2022-07-29T03:03:25;94661.97;;;17.00;98.13
56052;BME280;41919;42.648;23.384;2022-07-29T03:05:56;94713.25;;;17.38;97.91
56052;BME280;41919;42.648;23.384;2022-07-29T03:08:22;94645.91;;;17.02;97.68
56052;BME280;41919;42.648;23.384;2022-07-29T03:10:49;94642.28;;;17.08;98.10
56052;BME280;41919;42.648;23.384;2022-07-29T03:13:16;94659.41;;;17.22;97.96
56052;BME280;41919;42.648;23.384;2022-07-29T03:15:44;94705.94;;;17.62;97.94
56052;BME280;41919;42.648;23.384;2022-07-29T03:18:10;94688.16;;;17.58;97.43
56052;BME280;41919;42.648;23.384;2022-07-29T03:20:37;94715.16;;;17.82;96.61
56052;BME280;41919;42.648;23.384;2022-07-29T03:23:03;94704.34;;;17.83;96.12
56052;BME280;41919;42.648;23.384;2022-07-29T03:25:29;94712.19;;;17.95;95.95
56052;BME280;41919;42.648;23.384;2022-07-29T03:27:55;94701.19;;;18.03;94.53
56052;BME280;41919;42.648;23.384;2022-07-29T03:30:21;94720.88;;;18.13;94.24
56052;BME280;41919;42.648;23.384;2022-07-29T03:32:48;94662.16;;;17.72;94.67
56052;BME280;41919;42.648;23.384;2022-07-29T03:35:14;94649.50;;;17.52;95.27
56052;BME280;41919;42.648;23.384;2022-07-29T03:37:41;94660.84;;;17.52;96.56
56052;BME280;41919;42.648;23.384;2022-07-29T03:40:08;94706.53;;;17.70;97.89
56052;BME280;41919;42.648;23.384;2022-07-29T03:42:37;94688.16;;;17.58;98.50
56052;BME280;41919;42.648;23.384;2022-07-29T03:45:10;94711.47;;;17.61;99.15
56052;BME280;41919;42.648;23.384;2022-07-29T03:47:52;94718.59;;;17.60;100.00
56052;BME280;41919;42.648;23.384;2022-07-29T03:50:19;94663.25;;;17.32;100.00
56052;BME280;41919;42.648;23.384;2022-07-29T03:52:47;94723.22;;;17.70;99.54
56052;BME280;41919;42.648;23.384;2022-07-29T03:55:13;94680.47;;;17.56;97.02
56052;BME280;41919;42.648;23.384;2022-07-29T03:57:39;94717.84;;;18.04;94.49
56052;BME280;41919;42.648;23.384;2022-07-29T04:00:07;94721.78;;;18.23;93.81
56052;BME280;41919;42.648;23.384;2022-07-29T04:02:33;94722.63;;;18.29;92.86
56052;BME280;41919;42.648;23.384;2022-07-29T04:04:59;94723.91;;;18.49;89.98
56052;BME280;41919;42.648;23.384;2022-07-29T04:07:24;94686.59;;;18.23;88.90
56052;BME280;41919;42.648;23.384;2022-07-29T04:09:50;94719.59;;;18.42;88.48
56052;BME280;41919;42.648;23.384;2022-07-29T04:12:15;94723.00;;;18.65;86.71
56052;BME280;41919;42.648;23.384;2022-07-29T04:14:41;94675.03;;;18.56;84.98
56052;BME280;41919;42.648;23.384;2022-07-29T04:17:06;94722.13;;;19.09;84.12
56052;BME280;41919;42.648;23.384;2022-07-29T04:19:32;94714.03;;;19.26;82.74
56052;BME280;41919;42.648;23.384;2022-07-29T04:21:59;94686.56;;;19.37;80.46
56052;BME280;41919;42.648;23.384;2022-07-29T04:24:25;94719.13;;;19.75;78.92
56052;BME280;41919;42.648;23.384;2022-07-29T04:26:50;94669.63;;;19.48;78.85
56052;BME280;41919;42.648;23.384;2022-07-29T04:29:16;94710.59;;;19.68;79.17
56052;BME280;41919;42.648;23.384;2022-07-29T04:31:42;94672.28;;;19.48;79.28
56052;BME280;41919;42.648;23.384;2022-07-29T04:34:08;94701.50;;;19.53;79.23
56052;BME280;41919;42.648;23.384;2022-07-29T04:36:34;94664.00;;;19.29;78.90
56052;BME280;41919;42.648;23.384;2022-07-29T04:38:59;94670.03;;;19.25;80.27
56052;BME280;41919;42.648;23.384;2022-07-29T04:41:26;94722.06;;;19.73;79.54
56052;BME280;41919;42.648;23.384;2022-07-29T04:43:52;94729.81;;;19.85;79.68
56052;BME280;41919;42.648;23.384;2022-07-29T04:46:18;94738.41;;;20.08;78.39
56052;BME280;41919;42.648;23.384;2022-07-29T04:48:45;94740.09;;;20.34;77.04
56052;BME280;41919;42.648;23.384;2022-07-29T04:51:11;94709.88;;;20.46;75.65
56052;BME280;41919;42.648;23.384;2022-07-29T04:53:37;94678.09;;;20.71;73.94
56052;BME280;41919;42.648;23.384;2022-07-29T04:56:02;94697.50;;;21.23;71.66
56052;BME280;41919;42.648;23.384;2022-07-29T04:58:28;94733.09;;;21.68;70.67
56052;BME280;41919;42.648;23.384;2022-07-29T05:00:53;94739.63;;;22.12;69.16
56052;BME280;41919;42.648;23.384;2022-07-29T05:03:19;94692.84;;;22.01;66.89
56052;BME280;41919;42.648;23.384;2022-07-29T05:05:44;94690.63;;;22.28;66.05
56052;BME280;41919;42.648;23.384;2022-07-29T05:08:09;94696.34;;;22.51;65.76
56052;BME280;41919;42.648;23.384;2022-07-29T05:10:35;94738.63;;;22.68;66.10
56052;BME280;41919;42.648;23.384;2022-07-29T05:13:05;94687.41;;;22.31;65.25
56052;BME280;41919;42.648;23.384;2022-07-29T05:15:32;94734.63;;;22.70;66.16
56052;BME280;41919;42.648;23.384;2022-07-29T05:17:58;94749.53;;;23.16;64.40
56052;BME280;41919;42.648;23.384;2022-07-29T05:20:24;94743.16;;;23.12;63.88
56052;BME280;41919;42.648;23.384;2022-07-29T05:22:54;94692.19;;;22.79;65.10
56052;BME280;41919;42.648;23.384;2022-07-29T05:25:20;94739.97;;;23.10;63.89
56052;BME280;41919;42.648;23.384;2022-07-29T05:27:45;94743.81;;;23.62;63.17
56052;BME280;41919;42.648;23.384;2022-07-29T05:30:11;94658.28;;;23.78;61.28
56052;BME280;41919;42.648;23.384;2022-07-29T05:32:36;94710.44;;;24.37;58.43
56052;BME280;41919;42.648;23.384;2022-07-29T05:35:02;94702.47;;;24.94;55.85
56052;BME280;41919;42.648;23.384;2022-07-29T05:37:27;94742.72;;;25.88;53.13
56052;BME280;41919;42.648;23.384;2022-07-29T05:39:52;94701.97;;;26.18;50.30
56052;BME280;41919;42.648;23.384;2022-07-29T05:42:18;94680.19;;;26.62;48.86
56052;BME280;41919;42.648;23.384;2022-07-29T05:44:43;94713.38;;;27.25;46.99
56052;BME280;41919;42.648;23.384;2022-07-29T05:47:09;94743.53;;;27.75;46.94
56052;BME280;41919;42.648;23.384;2022-07-29T05:49:34;94715.44;;;27.82;45.99
56052;BME280;41919;42.648;23.384;2022-07-29T05:52:00;94748.97;;;28.24;45.81
56052;BME280;41919;42.648;23.384;2022-07-29T05:54:25;94715.13;;;28.06;45.06
56052;BME280;41919;42.648;23.384;2022-07-29T05:56:51;94727.22;;;28.43;44.41
56052;BME280;41919;42.648;23.384;2022-07-29T05:59:16;94729.97;;;28.61;44.58
56052;BME280;41919;42.648;23.384;2022-07-29T06:01:41;94719.72;;;28.71;43.73
56052;BME280;41919;42.648;23.384;2022-07-29T06:04:07;94747.72;;;28.88;44.61
56052;BME280;41919;42.648;23.384;2022-07-29T06:06:33;94754.06;;;29.01;43.98
56052;BME280;41919;42.648;23.384;2022-07-29T06:09:00;94746.03;;;29.18;42.98
56052;BME280;41919;42.648;23.384;2022-07-29T06:11:25;94720.22;;;29.35;42.43
56052;BME280;41919;42.648;23.384;2022-07-29T06:13:51;94753.44;;;29.82;42.30
56052;BME280;41919;42.648;23.384;2022-07-29T06:16:16;94746.09;;;29.91;41.76
56052;BME280;41919;42.648;23.384;2022-07-29T06:18:42;94751.09;;;30.10;41.16
56052;BME280;41919;42.648;23.384;2022-07-29T06:21:09;94713.25;;;30.07;41.05
56052;BME280;41919;42.648;23.384;2022-07-29T06:23:36;94733.00;;;30.20;40.99
56052;BME280;41919;42.648;23.384;2022-07-29T06:26:02;94741.78;;;30.46;40.66
56052;BME280;41919;42.648;23.384;2022-07-29T06:28:28;94735.00;;;30.40;41.05
56052;BME280;41919;42.648;23.384;2022-07-29T06:30:53;94753.59;;;30.63;40.34
56052;BME280;41919;42.648;23.384;2022-07-29T06:33:19;94751.97;;;30.71;39.62
56052;BME280;41919;42.648;23.384;2022-07-29T06:35:44;94752.19;;;30.57;40.77
56052;BME280;41919;42.648;23.384;2022-07-29T06:38:12;94746.75;;;30.65;40.10
56052;BME280;41919;42.648;23.384;2022-07-29T06:40:45;94712.22;;;30.59;39.78
56052;BME280;41919;42.648;23.384;2022-07-29T06:43:27;94707.91;;;30.87;38.58
56052;BME280;41919;42.648;23.384;2022-07-29T06:45:54;94746.47;;;30.58;39.31
56052;BME280;41919;42.648;23.384;2022-07-29T06:48:19;94716.31;;;30.35;39.60
56052;BME280;41919;42.648;23.384;2022-07-29T06:50:44;94698.56;;;29.87;40.08
56052;BME280;41919;42.648;23.384;2022-07-29T06:53:10;94744.78;;;30.45;40.12
56052;BME280;41919;42.648;23.384;2022-07-29T06:55:36;94733.91;;;30.83;39.53
56052;BME280;41919;42.648;23.384;2022-07-29T06:58:02;94745.16;;;31.15;39.57
56052;BME280;41919;42.648;23.384;2022-07-29T07:00:28;94739.00;;;30.85;40.13
56052;BME280;41919;42.648;23.384;2022-07-29T07:02:53;94697.69;;;30.93;39.18
56052;BME280;41919;42.648;23.384;2022-07-29T07:05:18;94733.25;;;31.71;38.03
56052;BME280;41919;42.648;23.384;2022-07-29T07:07:44;94740.09;;;32.01;37.07
56052;BME280;41919;42.648;23.384;2022-07-29T07:10:09;94731.75;;;32.07;36.47
56052;BME280;41919;42.648;23.384;2022-07-29T07:12:35;94716.91;;;32.13;36.16
56052;BME280;41919;42.648;23.384;2022-07-29T07:15:00;94733.41;;;31.99;35.88
56052;BME280;41919;42.648;23.384;2022-07-29T07:17:25;94697.47;;;31.86;36.67
56052;BME280;41919;42.648;23.384;2022-07-29T07:19:51;94721.94;;;31.56;37.09
56052;BME280;41919;42.648;23.384;2022-07-29T07:22:16;94696.31;;;31.08;37.14
56052;BME280;41919;42.648;23.384;2022-07-29T07:24:41;94730.25;;;31.51;36.22
56052;BME280;41919;42.648;23.384;2022-07-29T07:27:07;94732.72;;;31.02;36.54
56052;BME280;41919;42.648;23.384;2022-07-29T07:29:32;94732.59;;;30.98;37.33
56052;BME280;41919;42.648;23.384;2022-07-29T07:31:58;94730.50;;;30.53;38.88
56052;BME280;41919;42.648;23.384;2022-07-29T07:34:23;94695.91;;;30.55;37.49
56052;BME280;41919;42.648;23.384;2022-07-29T07:36:49;94734.31;;;30.73;37.58
56052;BME280;41919;42.648;23.384;2022-07-29T07:39:14;94691.94;;;30.53;37.40
56052;BME280;41919;42.648;23.384;2022-07-29T07:41:39;94729.75;;;30.44;38.34
56052;BME280;41919;42.648;23.384;2022-07-29T07:44:05;94692.63;;;30.11;38.07
56052;BME280;41919;42.648;23.384;2022-07-29T07:46:31;94719.91;;;30.39;37.70
56052;BME280;41919;42.648;23.384;2022-07-29T07:48:56;94677.63;;;29.93;37.91
56052;BME280;41919;42.648;23.384;2022-07-29T07:51:21;94700.69;;;29.73;38.62
56052;BME280;41919;42.648;23.384;2022-07-29T07:53:47;94722.56;;;29.54;40.80
56052;BME280;41919;42.648;23.384;2022-07-29T07:56:15;94722.59;;;30.09;37.97
56052;BME280;41919;42.648;23.384;2022-07-29T07:58:41;94699.34;;;30.26;38.10
56052;BME280;41919;42.648;23.384;2022-07-29T08:01:07;94728.41;;;30.59;37.27
56052;BME280;41919;42.648;23.384;2022-07-29T08:03:33;94677.88;;;30.08;37.27
56052;BME280;41919;42.648;23.384;2022-07-29T08:05:58;94722.47;;;30.65;36.27
56052;BME280;41919;42.648;23.384;2022-07-29T08:08:24;94698.97;;;30.66;35.79
56052;BME280;41919;42.648;23.384;2022-07-29T08:10:49;94706.03;;;30.20;37.87
56052;BME280;41919;42.648;23.384;2022-07-29T08:13:24;94725.16;;;30.65;37.12
56052;BME280;41919;42.648;23.384;2022-07-29T08:15:50;94712.56;;;30.78;35.55
56052;BME280;41919;42.648;23.384;2022-07-29T08:18:44;94724.00;;;30.75;35.80
56052;BME280;41919;42.648;23.384;2022-07-29T08:21:10;94720.38;;;30.41;36.22
56052;BME280;41919;42.648;23.384;2022-07-29T08:23:36;94705.69;;;30.30;37.16
56052;BME280;41919;42.648;23.384;2022-07-29T08:26:10;94706.69;;;29.69;37.87
56052;BME280;41919;42.648;23.384;2022-07-29T08:28:46;94681.44;;;29.27;37.04
56052;BME280;41919;42.648;23.384;2022-07-29T08:31:15;94712.81;;;29.96;35.77
56052;BME280;41919;42.648;23.384;2022-07-29T08:33:41;94659.81;;;30.09;36.65
56052;BME280;41919;42.648;23.384;2022-07-29T08:36:07;94710.22;;;30.68;35.01
56052;BME280;41919;42.648;23.384;2022-07-29T08:38:32;94691.00;;;30.48;33.75
56052;BME280;41919;42.648;23.384;2022-07-29T08:41:00;94686.00;;;30.38;33.90
56052;BME280;41919;42.648;23.384;2022-07-29T08:43:26;94714.28;;;30.32;35.01
56052;BME280;41919;42.648;23.384;2022-07-29T08:45:52;94666.94;;;29.66;35.75
56052;BME280;41919;42.648;23.384;2022-07-29T08:48:20;94678.56;;;29.32;35.01
56052;BME280;41919;42.648;23.384;2022-07-29T08:50:47;94711.31;;;29.60;36.47
56052;BME280;41919;42.648;23.384;2022-07-29T08:53:15;94715.97;;;29.98;34.69
56052;BME280;41919;42.648;23.384;2022-07-29T08:55:47;94636.66;;;29.69;34.67
56052;BME280;41919;42.648;23.384;2022-07-29T08:58:14;94709.94;;;30.01;34.38
56052;BME280;41919;42.648;23.384;2022-07-29T09:00:45;94699.56;;;30.51;34.12
56052;BME280;41919;42.648;23.384;2022-07-29T09:03:15;94698.34;;;30.69;34.23
56052;BME280;41919;42.648;23.384;2022-07-29T09:05:41;94704.03;;;31.18;33.90
56052;BME280;41919;42.648;23.384;2022-07-29T09:08:07;94679.16;;;31.25;32.39
56052;BME280;41919;42.648;23.384;2022-07-29T09:10:35;94670.00;;;30.63;32.96
56052;BME280;41919;42.648;23.384;2022-07-29T09:13:01;94693.44;;;30.92;33.12
56052;BME280;41919;42.648;23.384;2022-07-29T09:15:26;94656.16;;;31.06;32.03
56052;BME280;41919;42.648;23.384;2022-07-29T09:17:52;94653.34;;;30.82;32.38
56052;BME280;41919;42.648;23.384;2022-07-29T09:20:21;94685.00;;;31.15;32.83
56052;BME280;41919;42.648;23.384;2022-07-29T09:22:47;94658.78;;;31.15;33.16
56052;BME280;41919;42.648;23.384;2022-07-29T09:25:31;94688.47;;;31.15;32.34
56052;BME280;41919;42.648;23.384;2022-07-29T09:28:11;94658.84;;;30.85;32.66
56052;BME280;41919;42.648;23.384;2022-07-29T09:30:54;94689.53;;;30.81;33.42
56052;BME280;41919;42.648;23.384;2022-07-29T09:33:23;94697.09;;;30.66;34.40
56052;BME280;41919;42.648;23.384;2022-07-29T09:36:05;94671.75;;;30.38;34.68
56052;BME280;41919;42.648;23.384;2022-07-29T09:38:32;94662.81;;;30.67;34.71
56052;BME280;41919;42.648;23.384;2022-07-29T09:41:00;94645.84;;;30.87;33.91
56052;BME280;41919;42.648;23.384;2022-07-29T09:43:26;94652.19;;;30.92;33.73
56052;BME280;41919;42.648;23.384;2022-07-29T09:45:51;94689.78;;;31.30;33.47
56052;BME280;41919;42.648;23.384;2022-07-29T09:48:22;94691.78;;;31.33;33.27
56052;BME280;41919;42.648;23.384;2022-07-29T09:50:48;94630.72;;;31.29;33.23
56052;BME280;41919;42.648;23.384;2022-07-29T09:53:36;94679.00;;;31.88;32.51
56052;BME280;41919;42.648;23.384;2022-07-29T09:56:03;94658.47;;;31.50;32.77
56052;BME280;41919;42.648;23.384;2022-07-29T09:58:29;94641.97;;;31.43;32.71
56052;BME280;41919;42.648;23.384;2022-07-29T10:00:55;94623.03;;;31.52;32.64
56052;BME280;41919;42.648;23.384;2022-07-29T10:03:22;94669.47;;;32.03;31.55
56052;BME280;41919;42.648;23.384;2022-07-29T10:06:10;94668.66;;;31.44;32.80
56052;BME280;41919;42.648;23.384;2022-07-29T10:08:36;94667.19;;;31.68;32.43
56052;BME280;41919;42.648;23.384;2022-07-29T10:11:16;94659.44;;;31.45;33.50
56052;BME280;41919;42.648;23.384;2022-07-29T10:13:43;94657.34;;;30.97;34.65
56052;BME280;41919;42.648;23.384;2022-07-29T10:16:10;94657.72;;;30.86;35.44
56052;BME280;41919;42.648;23.384;2022-07-29T10:18:38;94657.59;;;30.41;35.19
56052;BME280;41919;42.648;23.384;2022-07-29T10:21:04;94649.97;;;30.64;35.81
56052;BME280;41919;42.648;23.384;2022-07-29T10:23:30;94599.66;;;30.47;34.67
56052;BME280;41919;42.648;23.384;2022-07-29T10:25:56;94639.72;;;30.78;35.02
56052;BME280;41919;42.648;23.384;2022-07-29T10:28:21;94633.25;;;31.13;31.81
56052;BME280;41919;42.648;23.384;2022-07-29T10:30:50;94578.69;;;30.53;34.10
56052;BME280;41919;42.648;23.384;2022-07-29T10:34:04;94641.97;;;30.76;33.87
56052;BME280;41919;42.648;23.384;2022-07-29T10:36:38;94645.50;;;30.68;33.85
56052;BME280;41919;42.648;23.384;2022-07-29T10:42:39;94634.84;;;30.93;34.34
56052;BME280;41919;42.648;23.384;2022-07-29T10:44:34;94640.53;;;31.12;33.97
56052;BME280;41919;42.648;23.384;2022-07-29T10:47:00;94633.00;;;30.63;33.63
56052;BME280;41919;42.648;23.384;2022-07-29T10:49:26;94623.72;;;30.73;33.33
56052;BME280;41919;42.648;23.384;2022-07-29T10:52:08;94608.56;;;30.90;32.14
56052;BME280;41919;42.648;23.384;2022-07-29T10:54:44;94624.72;;;31.11;32.28
56052;BME280;41919;42.648;23.384;2022-07-29T10:57:30;94570.19;;;30.63;31.87
56052;BME280;41919;42.648;23.384;2022-07-29T11:05:15;94573.69;;;30.63;32.46
56052;BME280;41919;42.648;23.384;2022-07-29T11:10:38;94573.84;;;30.79;32.44
56052;BME280;41919;42.648;23.384;2022-07-29T11:13:03;94599.72;;;31.01;32.26
56052;BME280;41919;42.648;23.384;2022-07-29T11:15:29;94613.34;;;30.63;33.48
56052;BME280;41919;42.648;23.384;2022-07-29T11:18:14;94620.22;;;30.30;33.09
56052;BME280;41919;42.648;23.384;2022-07-29T11:20:44;94604.16;;;30.13;34.08
56052;BME280;41919;42.648;23.384;2022-07-29T11:23:23;94597.34;;;30.58;33.17
56052;BME280;41919;42.648;23.384;2022-07-29T11:31:43;94599.47;;;31.06;32.60
56052;BME280;41919;42.648;23.384;2022-07-29T11:39:38;94542.06;;;30.85;31.54
56052;BME280;41919;42.648;23.384;2022-07-29T11:47:28;94540.22;;;30.98;31.42
56052;BME280;41919;42.648;23.384;2022-07-29T11:49:58;94557.44;;;31.18;30.71
56052;BME280;41919;42.648;23.384;2022-07-29T11:52:45;94569.50;;;31.20;30.78
56052;BME280;41919;42.648;23.384;2022-07-29T11:55:16;94586.78;;;31.07;31.54
56052;BME280;41919;42.648;23.384;2022-07-29T11:57:58;94581.69;;;30.72;31.77
56052;BME280;41919;42.648;23.384;2022-07-29T12:02:57;94541.22;;;30.39;31.88
56052;BME280;41919;42.648;23.384;2022-07-29T12:05:43;94578.91;;;31.02;33.15
56052;BME280;41919;42.648;23.384;2022-07-29T12:08:16;94563.28;;;31.07;30.46
56052;BME280;41919;42.648;23.384;2022-07-29T12:10:47;94560.72;;;31.23;31.67
56052;BME280;41919;42.648;23.384;2022-07-29T12:13:15;94564.38;;;30.94;31.27
56052;BME280;41919;42.648;23.384;2022-07-29T12:15:40;94565.78;;;31.13;31.38
56052;BME280;41919;42.648;23.384;2022-07-29T12:18:14;94582.47;;;30.94;31.56
56052;BME280;41919;42.648;23.384;2022-07-29T12:20:39;94585.34;;;30.88;31.38
56052;BME280;41919;42.648;23.384;2022-07-29T12:23:06;94581.41;;;31.07;30.40
56052;BME280;41919;42.648;23.384;2022-07-29T12:25:34;94580.31;;;31.20;30.56
56052;BME280;41919;42.648;23.384;2022-07-29T12:28:03;94582.66;;;31.22;31.33
56052;BME280;41919;42.648;23.384;2022-07-29T12:30:45;94549.66;;;31.04;30.16
56052;BME280;41919;42.648;23.384;2022-07-29T12:33:23;94577.03;;;31.27;30.20
56052;BME280;41919;42.648;23.384;2022-07-29T12:35:56;94567.47;;;31.30;30.49
56052;BME280;41919;42.648;23.384;2022-07-29T12:38:22;94523.47;;;31.04;30.22
56052;BME280;41919;42.648;23.384;2022-07-29T12:40:49;94555.34;;;31.36;29.93
56052;BME280;41919;42.648;23.384;2022-07-29T12:43:20;94566.75;;;31.54;30.68
56052;BME280;41919;42.648;23.384;2022-07-29T12:45:52;94562.19;;;31.33;30.84
56052;BME280;41919;42.648;23.384;2022-07-29T12:48:39;94550.31;;;31.01;30.54
56052;BME280;41919;42.648;23.384;2022-07-29T12:51:05;94557.09;;;31.07;31.49
56052;BME280;41919;42.648;23.384;2022-07-29T12:53:32;94552.69;;;31.02;31.01
56052;BME280;41919;42.648;23.384;2022-07-29T12:55:58;94550.81;;;31.15;31.49
56052;BME280;41919;42.648;23.384;2022-07-29T12:58:34;94552.16;;;31.21;31.22
56052;BME280;41919;42.648;23.384;2022-07-29T13:03:28;94549.78;;;31.07;31.54
56052;BME280;41919;42.648;23.384;2022-07-29T13:05:54;94533.84;;;31.15;31.66
56052;BME280;41919;42.648;23.384;2022-07-29T13:08:19;94539.38;;;31.18;30.84
56052;BME280;41919;42.648;23.384;2022-07-29T13:10:45;94522.25;;;31.14;30.81
56052;BME280;41919;42.648;23.384;2022-07-29T13:13:13;94496.19;;;30.85;31.24
56052;BME280;41919;42.648;23.384;2022-07-29T13:15:42;94537.72;;;30.93;31.10
56052;BME280;41919;42.648;23.384;2022-07-29T13:18:30;94537.22;;;30.78;31.82
56052;BME280;41919;42.648;23.384;2022-07-29T13:20:56;94533.84;;;30.81;32.42
56052;BME280;41919;42.648;23.384;2022-07-29T13:23:22;94522.06;;;30.86;31.83
56052;BME280;41919;42.648;23.384;2022-07-29T13:25:48;94533.22;;;30.97;31.81
56052;BME280;41919;42.648;23.384;2022-07-29T13:28:14;94506.41;;;30.79;31.09
56052;BME280;41919;42.648;23.384;2022-07-29T13:30:39;94535.75;;;30.81;31.18
56052;BME280;41919;42.648;23.384;2022-07-29T13:33:06;94519.56;;;30.81;31.48
56052;BME280;41919;42.648;23.384;2022-07-29T13:35:31;94463.41;;;30.49;31.85
56052;BME280;41919;42.648;23.384;2022-07-29T13:37:57;94497.50;;;30.66;32.18
56052;BME280;41919;42.648;23.384;2022-07-29T13:40:22;94512.94;;;30.78;31.95
56052;BME280;41919;42.648;23.384;2022-07-29T13:42:48;94483.44;;;30.61;32.29
56052;BME280;41919;42.648;23.384;2022-07-29T13:45:13;94470.16;;;30.56;31.75
56052;BME280;41919;42.648;23.384;2022-07-29T13:47:39;94479.34;;;30.55;31.13
56052;BME280;41919;42.648;23.384;2022-07-29T13:50:06;94521.31;;;30.64;31.58
56052;BME280;41919;42.648;23.384;2022-07-29T13:52:33;94487.94;;;30.36;31.84